Time;durP1;ratioP1;P1;durP2;ratioP2;P2;SDS_P1;SDS_P2;PMS_P1;PMS_P2;Temp;Humidity;BMP_temperature;BMP_pressure;BME280_temperature;BME280_humidity;BME280_pressure;Samples;Min_cycle;Max_cycle;Signal;HPM_P1;HPM_P2
2021/03/30 00:02:14;;;;;;;10.93;7.55;;;;;;;9.41;44.69;100220.44;4936483;28;20041;-75
2021/03/30 00:04:40;;;;;;;7.60;5.82;;;;;;;9.42;45.08;100243.41;4972175;28;20022;-76
2021/03/30 00:07:05;;;;;;;12.88;6.75;;;;;;;9.37;45.53;100237.94;4971715;28;20472;-76
2021/03/30 00:09:31;;;;;;;9.35;5.88;;;;;;;9.32;45.65;100237.84;4972348;28;20120;-76
2021/03/30 00:11:56;;;;;;;10.00;6.65;;;;;;;9.28;45.45;100236.72;4972407;28;20030;-77
2021/03/30 00:14:21;;;;;;;9.25;5.18;;;;;;;9.21;45.47;100233.38;4955207;28;20023;-77
2021/03/30 00:16:47;;;;;;;6.93;4.47;;;;;;;9.19;45.16;100243.47;4972298;28;20034;-78
2021/03/30 00:19:12;;;;;;;6.97;4.55;;;;;;;9.12;45.29;100243.63;4953522;28;20030;-77
2021/03/30 00:21:38;;;;;;;7.18;3.95;;;;;;;9.04;45.54;100244.78;4952959;28;20026;-81
2021/03/30 00:24:04;;;;;;;6.78;3.80;;;;;;;8.97;45.82;100241.44;4935714;29;20551;-80
2021/03/30 00:26:34;;;;;;;5.75;3.10;;;;;;;8.92;45.81;100249.34;4952985;28;20122;-82
2021/03/30 00:39:40;;;;;;;4.38;2.90;;;;;;;8.60;45.04;100247.06;4990160;28;20042;-82
2021/03/30 00:42:25;;;;;;;6.35;3.00;;;;;;;8.54;45.36;100243.47;4960064;28;20026;-83
2021/03/30 00:44:52;;;;;;;6.07;3.72;;;;;;;8.49;45.93;100238.84;4955681;28;20411;-81
2021/03/30 00:47:19;;;;;;;5.13;3.38;;;;;;;8.45;45.58;100240.31;4956659;28;20046;-82
2021/03/30 00:49:47;;;;;;;5.55;3.55;;;;;;;8.38;45.95;100239.63;4955012;28;20027;-80
2021/03/30 00:52:13;;;;;;;4.25;3.38;;;;;;;8.32;46.20;100238.72;4954138;28;20047;-81
2021/03/30 00:54:38;;;;;;;5.95;3.75;;;;;;;8.27;46.62;100240.44;4955040;28;20041;-80
2021/03/30 00:57:06;;;;;;;6.30;3.20;;;;;;;8.20;46.42;100231.75;4954799;28;20420;-80
2021/03/30 00:59:31;;;;;;;5.53;3.70;;;;;;;8.17;46.73;100239.16;4950091;29;20074;-81
2021/03/30 01:01:58;;;;;;;7.75;4.85;;;;;;;8.12;47.06;100235.56;4948991;28;20484;-81
2021/03/30 01:04:23;;;;;;;5.13;3.33;;;;;;;8.08;47.10;100232.56;4954698;28;20089;-80
2021/03/30 01:06:49;;;;;;;9.40;4.72;;;;;;;8.07;47.03;100228.25;4944728;28;20043;-81
2021/03/30 01:09:27;;;;;;;6.97;4.53;;;;;;;8.04;46.76;100228.72;4935606;29;20365;-80
2021/03/30 01:12:21;;;;;;;6.85;4.10;;;;;;;8.03;47.22;100232.41;4935751;29;20407;-81
2021/03/30 01:15:12;;;;;;;8.80;4.68;;;;;;;8.03;47.48;100235.06;4939039;29;20023;-80
2021/03/30 01:17:56;;;;;;;9.93;5.25;;;;;;;7.99;48.06;100234.72;4946405;28;20023;-80
2021/03/30 01:20:33;;;;;;;11.38;6.18;;;;;;;7.96;47.91;100221.88;4957640;28;20027;-81
2021/03/30 01:23:26;;;;;;;8.95;5.30;;;;;;;7.95;47.46;100227.44;4957917;28;20121;-80
2021/03/30 01:26:11;;;;;;;11.32;6.13;;;;;;;7.88;47.89;100224.84;4958248;28;20027;-79
2021/03/30 01:29:02;;;;;;;9.38;5.43;;;;;;;7.85;48.28;100228.00;4958243;28;20022;-78
2021/03/30 01:31:31;;;;;;;11.30;5.75;;;;;;;7.81;48.05;100224.97;4957695;28;20396;-78
2021/03/30 01:33:58;;;;;;;9.70;4.85;;;;;;;7.75;47.88;100222.41;4957603;28;20027;-78
2021/03/30 01:36:27;;;;;;;10.63;5.03;;;;;;;7.73;47.92;100227.16;4957838;28;20030;-78
2021/03/30 01:38:53;;;;;;;8.38;4.75;;;;;;;7.72;47.88;100234.31;4958105;28;20506;-78
2021/03/30 01:41:22;;;;;;;8.45;5.03;;;;;;;7.68;47.79;100225.97;4958035;28;20031;-78
2021/03/30 01:50:04;;;;;;;8.80;5.57;;;;;;;7.53;48.76;100222.91;5265503;23;20053;-79
2021/03/30 01:52:32;;;;;;;11.50;4.32;;;;;;;7.46;47.55;100217.69;4981644;28;20547;-81
2021/03/30 01:54:58;;;;;;;12.73;5.97;;;;;;;7.44;47.67;100209.13;4948919;29;20377;-81
2021/03/30 01:57:26;;;;;;;9.43;5.43;;;;;;;7.40;48.41;100217.78;4945633;29;20117;-81
2021/03/30 01:59:52;;;;;;;8.63;5.28;;;;;;;7.35;48.68;100216.59;4944598;29;20459;-81
2021/03/30 02:02:20;;;;;;;7.35;5.07;;;;;;;7.33;48.82;100210.69;4945627;29;20055;-81
2021/03/30 02:04:47;;;;;;;;;;;;;;;7.32;49.35;100213.59;4937236;28;20045;-79
2021/03/30 02:07:15;;;;;;;12.68;5.30;;;;;;;7.27;49.28;100210.78;4947776;29;19942;-81
2021/03/30 02:17:07;;;;;;;7.72;4.20;;;;;;;7.06;49.95;100215.56;4936960;29;20076;-81
2021/03/30 02:19:47;;;;;;;6.30;3.58;;;;;;;6.99;49.81;100222.81;4927430;29;20098;-80
2021/03/30 02:22:32;;;;;;;7.85;4.03;;;;;;;6.91;49.87;100215.13;4922863;29;20044;-80
2021/03/30 02:25:00;;;;;;;8.07;4.60;;;;;;;6.84;50.33;100215.22;4918050;29;20024;-77
2021/03/30 02:27:28;;;;;;;5.93;3.70;;;;;;;6.77;50.47;100215.28;4918593;29;20603;-77
2021/03/30 02:29:56;;;;;;;5.68;4.45;;;;;;;6.71;50.47;100221.47;4934508;29;20084;-78
2021/03/30 02:32:24;;;;;;;5.82;4.25;;;;;;;6.62;50.41;100217.50;4916207;29;20040;-78
2021/03/30 02:34:52;;;;;;;5.80;4.88;;;;;;;6.58;50.26;100222.44;4927585;29;20532;-79
2021/03/30 02:37:19;;;;;;;7.70;4.63;;;;;;;6.53;50.92;100220.44;4920193;29;20476;-79
2021/03/30 02:39:46;;;;;;;9.07;7.05;;;;;;;6.46;50.90;100219.69;4920622;29;20027;-80
2021/03/30 02:42:12;;;;;;;8.35;6.13;;;;;;;6.45;50.90;100223.38;4921618;29;20023;-79
2021/03/30 02:44:40;;;;;;;5.25;3.80;;;;;;;6.42;50.81;100226.47;4923305;29;20043;-80
2021/03/30 02:47:06;;;;;;;8.75;5.20;;;;;;;6.35;51.07;100223.88;4922814;29;20055;-80
2021/03/30 02:49:32;;;;;;;11.32;8.93;;;;;;;6.31;51.47;100222.69;4929088;29;20085;-77
2021/03/30 02:51:58;;;;;;;11.55;9.48;;;;;;;6.27;51.38;100226.81;4937950;29;20032;-76
2021/03/30 02:54:26;;;;;;;7.25;6.55;;;;;;;6.24;51.24;100228.06;4913945;29;20068;-78
2021/03/30 02:56:54;;;;;;;7.40;6.47;;;;;;;6.20;51.54;100232.19;4917116;29;20555;-78
2021/03/30 02:59:20;;;;;;;5.85;5.22;;;;;;;6.19;51.76;100227.91;4923854;29;20496;-78
2021/03/30 03:01:49;;;;;;;7.43;5.63;;;;;;;6.14;51.96;100222.44;4956190;28;20058;-77
2021/03/30 03:04:14;;;;;;;7.80;7.00;;;;;;;6.09;51.98;100224.91;4955693;28;20041;-76
2021/03/30 03:06:41;;;;;;;7.65;5.15;;;;;;;6.06;51.70;100222.69;4955653;28;20109;-78
2021/03/30 03:09:08;;;;;;;5.85;3.58;;;;;;;6.05;52.29;100221.91;4952838;28;20460;-76
2021/03/30 03:11:36;;;;;;;6.32;3.80;;;;;;;6.02;52.18;100217.00;4956283;28;20027;-76
2021/03/30 03:14:03;;;;;;;8.05;4.13;;;;;;;6.00;52.35;100221.72;4969220;28;20074;-76
2021/03/30 03:16:30;;;;;;;8.02;3.60;;;;;;;5.98;52.69;100220.28;4956036;28;20035;-77
2021/03/30 03:18:56;;;;;;;6.32;3.92;;;;;;;5.95;52.97;100218.06;4956181;28;20034;-76
2021/03/30 03:21:24;;;;;;;5.20;4.07;;;;;;;5.90;53.22;100210.75;4952876;28;20065;-78
2021/03/30 03:23:49;;;;;;;5.57;4.22;;;;;;;5.88;53.06;100213.63;4948945;28;20480;-77
2021/03/30 03:26:15;;;;;;;8.82;5.72;;;;;;;5.86;52.93;100215.69;4951755;28;20069;-77
2021/03/30 03:28:41;;;;;;;9.57;5.75;;;;;;;5.82;53.18;100224.28;4955786;28;20122;-77
2021/03/30 03:31:07;;;;;;;10.05;5.10;;;;;;;5.77;53.08;100215.13;4955399;28;20026;-77
2021/03/30 03:33:33;;;;;;;10.05;5.22;;;;;;;5.73;53.31;100216.56;4955925;28;20030;-79
2021/03/30 03:36:00;;;;;;;8.23;4.90;;;;;;;5.70;53.50;100217.00;4955953;28;20089;-80
2021/03/30 03:38:27;;;;;;;8.35;4.15;;;;;;;5.66;53.45;100207.03;4954744;28;20599;-80
2021/03/30 03:40:52;;;;;;;5.28;3.72;;;;;;;5.65;53.22;100213.38;4953462;28;20503;-80
2021/03/30 03:43:18;;;;;;;4.95;3.42;;;;;;;5.61;53.87;100216.47;4959096;28;20027;-82
2021/03/30 03:45:50;;;;;;;4.47;3.80;;;;;;;5.56;53.74;100216.28;4975148;28;20027;-83
2021/03/30 03:48:18;;;;;;;4.75;3.53;;;;;;;5.52;53.93;100215.09;4972549;28;20046;-83
2021/03/30 03:50:44;;;;;;;6.78;3.55;;;;;;;5.54;53.65;100217.50;4939520;29;20045;-80
2021/03/30 03:53:12;;;;;;;5.97;4.13;;;;;;;5.52;53.87;100225.69;4936053;29;20034;-80
2021/03/30 03:55:44;;;;;;;5.80;4.32;;;;;;;5.48;53.96;100213.06;4937213;29;20019;-81
2021/03/30 03:58:11;;;;;;;7.45;4.00;;;;;;;5.45;53.85;100215.09;4936209;29;20126;-80
2021/03/30 04:00:39;;;;;;;5.05;3.60;;;;;;;5.45;54.17;100224.91;4936146;29;20038;-80
2021/03/30 04:03:36;;;;;;;7.05;4.75;;;;;;;5.44;54.04;100220.63;4940961;28;20035;-83
2021/03/30 04:06:16;;;;;;;5.38;3.95;;;;;;;5.41;54.56;100224.53;4938250;29;20460;-80
2021/03/30 04:08:46;;;;;;;10.80;4.95;;;;;;;5.40;54.38;100222.91;4940745;29;20015;-80
2021/03/30 04:11:12;;;;;;;12.82;7.13;;;;;;;5.39;54.50;100231.88;4941497;29;20019;-82
2021/03/30 04:13:38;;;;;;;11.43;5.70;;;;;;;5.43;54.75;100232.25;4939448;29;20094;-81
2021/03/30 04:16:05;;;;;;;9.77;4.88;;;;;;;5.49;54.58;100230.63;4939820;29;20053;-82
2021/03/30 04:18:32;;;;;;;8.60;5.38;;;;;;;5.55;54.51;100230.56;4936379;29;20514;-78
2021/03/30 04:21:01;;;;;;;10.20;6.13;;;;;;;5.67;54.27;100240.50;4935508;29;20697;-78
2021/03/30 04:23:26;;;;;;;11.88;6.40;;;;;;;5.82;54.14;100237.56;4935454;29;20062;-77
2021/03/30 04:25:52;;;;;;;15.13;6.22;;;;;;;6.00;53.37;100232.34;4935754;29;20117;-79
2021/03/30 04:28:18;;;;;;;11.32;6.35;;;;;;;6.19;53.56;100235.88;4937694;29;20030;-78
2021/03/30 04:30:44;;;;;;;15.85;9.10;;;;;;;6.45;53.24;100238.53;4926894;29;20027;-80
2021/03/30 04:33:09;;;;;;;21.30;9.07;;;;;;;6.70;52.78;100241.94;4936584;29;20027;-80
2021/03/30 04:35:35;;;;;;;18.75;9.50;;;;;;;6.98;52.11;100239.78;4935830;29;20047;-80
2021/03/30 04:38:01;;;;;;;14.85;7.47;;;;;;;7.26;51.06;100233.91;4936648;29;20027;-80
2021/03/30 04:44:57;;;;;;;24.55;12.88;;;;;;;8.06;49.11;100239.94;4944334;29;20030;-82
2021/03/30 04:47:38;;;;;;;20.02;10.23;;;;;;;8.47;47.84;100242.78;4960018;28;20031;-81
2021/03/30 04:50:14;;;;;;;14.90;9.98;;;;;;;8.78;46.84;100241.59;4957011;28;20092;-82
2021/03/30 04:52:41;;;;;;;11.30;7.85;;;;;;;9.12;46.44;100240.97;4959953;28;20089;-81
2021/03/30 04:55:08;;;;;;;9.80;5.97;;;;;;;9.42;45.17;100237.25;4958442;28;20027;-83
2021/03/30 04:57:34;;;;;;;12.50;9.02;;;;;;;9.72;44.29;100242.31;4942117;28;20033;-82
2021/03/30 05:00:00;;;;;;;15.90;10.43;;;;;;;10.03;43.96;100240.19;4941851;28;20030;-86
2021/03/30 05:03:15;;;;;;;17.17;11.50;;;;;;;10.38;43.11;100249.03;4957467;28;20491;-87
2021/03/30 05:05:56;;;;;;;18.27;10.23;;;;;;;10.74;42.30;100246.84;4975230;28;20043;-84
2021/03/30 05:08:21;;;;;;;17.77;10.63;;;;;;;11.03;41.44;100249.34;4957460;28;20019;-81
2021/03/30 05:10:50;;;;;;;14.35;10.10;;;;;;;11.31;40.70;100255.56;4958004;28;20097;-84
2021/03/30 05:13:15;;;;;;;31.15;17.38;;;;;;;11.55;40.32;100248.06;4957315;28;20027;-84
2021/03/30 05:15:41;;;;;;;42.05;19.67;;;;;;;11.80;39.75;100252.88;4957960;28;20472;-84
2021/03/30 05:18:06;;;;;;;24.25;11.85;;;;;;;12.04;39.27;100246.38;4958342;28;20442;-81
2021/03/30 05:20:31;;;;;;;13.60;8.90;;;;;;;12.29;38.51;100243.88;4957404;28;20479;-84
2021/03/30 05:22:57;;;;;;;16.77;8.30;;;;;;;12.52;37.71;100252.59;4957182;28;20050;-84
2021/03/30 05:25:22;;;;;;;18.73;9.48;;;;;;;12.63;37.97;100253.47;4957608;28;20502;-82
2021/03/30 05:27:48;;;;;;;11.38;7.97;;;;;;;12.81;37.40;100249.56;4957858;28;20483;-82
2021/03/30 05:30:13;;;;;;;10.73;6.20;;;;;;;13.01;37.06;100250.72;4956997;28;20058;-82
2021/03/30 05:32:39;;;;;;;9.40;6.70;;;;;;;13.22;37.04;100255.09;4957997;28;20019;-82
2021/03/30 05:35:08;;;;;;;18.20;10.50;;;;;;;13.47;36.53;100255.47;4957526;28;20467;-83
2021/03/30 05:37:33;;;;;;;7.50;5.22;;;;;;;13.69;35.75;100257.94;4957462;28;20488;-84
2021/03/30 05:39:59;;;;;;;10.15;6.25;;;;;;;13.95;35.64;100260.63;4957452;28;20030;-84
2021/03/30 05:42:24;;;;;;;8.30;6.55;;;;;;;14.18;35.26;100259.28;4957668;28;20531;-89
2021/03/30 05:44:53;;;;;;;9.43;6.05;;;;;;;14.41;35.52;100256.03;4957298;28;20035;-84
2021/03/30 05:47:22;;;;;;;23.92;12.25;;;;;;;14.56;35.07;100247.13;4957332;28;20033;-83
2021/03/30 05:49:49;;;;;;;28.70;12.07;;;;;;;14.78;35.55;100245.22;4957302;28;20060;-84
2021/03/30 05:52:27;;;;;;;20.45;11.30;;;;;;;15.03;35.25;100253.19;4956320;28;20415;-81
2021/03/30 05:54:56;;;;;;;23.45;12.98;;;;;;;15.14;35.14;100243.19;4957311;28;20168;-82
2021/03/30 05:57:27;;;;;;;19.73;11.68;;;;;;;15.36;34.40;100253.56;4957435;28;20034;-82
2021/03/30 05:59:58;;;;;;;24.00;13.82;;;;;;;15.46;33.99;100251.91;4957440;28;20034;-83
2021/03/30 06:02:45;;;;;;;8.15;5.30;;;;;;;15.36;30.37;100247.38;4956649;28;20035;-92
2021/03/30 06:05:15;;;;;;;3.88;2.70;;;;;;;15.19;30.21;100251.22;4957342;28;20027;-83
2021/03/30 06:07:41;;;;;;;5.97;4.80;;;;;;;15.01;31.38;100247.28;4956981;28;20018;-86
2021/03/30 06:10:09;;;;;;;8.20;5.03;;;;;;;14.87;31.22;100257.03;4957287;28;20113;-85
2021/03/30 06:12:35;;;;;;;3.88;3.47;;;;;;;14.80;32.06;100253.81;4956697;28;20060;-86
2021/03/30 06:15:05;;;;;;;12.77;6.80;;;;;;;14.69;32.40;100253.84;4957132;28;20116;-87
2021/03/30 06:17:42;;;;;;;4.22;2.70;;;;;;;14.56;30.71;100260.59;4954243;28;20086;-84
2021/03/30 06:20:10;;;;;;;4.63;2.85;;;;;;;14.31;31.79;100258.72;4956334;28;20097;-88
2021/03/30 06:22:48;;;;;;;5.40;3.15;;;;;;;14.17;30.97;100261.19;4953257;28;20110;-89
2021/03/30 06:25:34;;;;;;;5.18;2.95;;;;;;;13.98;32.26;100260.09;4955290;28;20756;-87
2021/03/30 06:28:13;;;;;;;5.20;3.05;;;;;;;13.82;31.08;100262.78;4956894;28;20507;-93
2021/03/30 06:30:39;;;;;;;;;;;;;;;13.65;32.28;100267.59;4957267;28;20033;-89
2021/03/30 06:33:06;;;;;;;4.43;2.50;;;;;;;13.49;31.40;100264.06;4956630;28;19957;-86
2021/03/30 06:35:31;;;;;;;3.20;2.88;;;;;;;13.40;32.53;100266.47;4956152;28;20058;-87
2021/03/30 06:37:57;;;;;;;4.88;2.70;;;;;;;13.36;31.96;100259.97;4956643;28;20503;-87
2021/03/30 06:40:29;;;;;;;4.65;3.40;;;;;;;13.38;32.32;100260.56;4956378;28;20025;-86
2021/03/30 06:43:13;;;;;;;3.08;2.28;;;;;;;13.15;31.57;100275.22;4956795;28;20117;-85
2021/03/30 06:45:38;;;;;;;4.65;2.85;;;;;;;13.02;32.65;100271.13;4954178;28;20027;-79
2021/03/30 06:48:05;;;;;;;5.68;3.00;;;;;;;12.90;32.09;100282.91;4952290;28;20031;-87
2021/03/30 06:50:36;;;;;;;3.75;2.67;;;;;;;12.72;32.36;100275.25;4955408;28;20050;-89
2021/03/30 06:53:10;;;;;;;4.10;2.90;;;;;;;12.65;33.23;100275.50;4946366;28;20022;-88
2021/03/30 06:55:51;;;;;;;4.72;3.00;;;;;;;12.64;33.07;100273.88;4956220;28;20121;-89
2021/03/30 06:58:17;;;;;;;3.65;2.92;;;;;;;12.64;34.94;100276.56;4955496;28;20597;-89
2021/03/30 07:00:46;;;;;;;4.85;3.03;;;;;;;12.54;34.66;100276.53;4954648;28;20114;-92
2021/03/30 07:03:16;;;;;;;4.13;2.45;;;;;;;12.55;35.20;100276.25;4947449;28;20491;-84
2021/03/30 07:05:45;;;;;;;6.97;3.17;;;;;;;12.54;35.33;100274.63;4950613;28;20026;-79
2021/03/30 07:08:13;;;;;;;3.35;2.72;;;;;;;12.56;34.27;100269.81;4944066;28;20018;-83
2021/03/30 07:10:48;;;;;;;6.38;3.10;;;;;;;12.54;34.90;100274.63;4956179;28;20023;-96
2021/03/30 07:13:16;;;;;;;4.13;2.92;;;;;;;12.50;35.88;100286.97;4958990;28;20542;-87
2021/03/30 07:15:42;;;;;;;4.43;3.60;;;;;;;12.46;35.27;100278.63;4956034;28;20480;-85
2021/03/30 07:18:43;;;;;;;5.07;3.55;;;;;;;12.46;36.43;100283.97;4956248;28;20129;-80
2021/03/30 07:21:19;;;;;;;5.15;3.55;;;;;;;12.45;36.45;100286.91;4956097;28;20027;-78
2021/03/30 07:23:52;;;;;;;5.55;4.03;;;;;;;12.49;36.73;100288.81;4955794;28;20027;-89
2021/03/30 07:26:28;;;;;;;4.43;3.08;;;;;;;12.48;36.90;100279.16;4950534;28;20034;-90
2021/03/30 07:29:16;;;;;;;4.63;3.30;;;;;;;12.58;37.43;100282.97;4948781;28;20031;-89
2021/03/30 07:31:54;;;;;;;4.57;3.25;;;;;;;12.53;37.12;100281.06;4946125;28;20049;-96
2021/03/30 07:34:30;;;;;;;8.52;3.10;;;;;;;12.58;37.25;100274.94;4948429;28;20034;-86
2021/03/30 07:37:00;;;;;;;3.83;3.40;;;;;;;12.71;37.61;100266.41;4954744;28;20026;-86
2021/03/30 07:39:31;;;;;;;5.20;3.83;;;;;;;12.70;36.30;100278.22;4955671;28;20034;-86
2021/03/30 07:41:57;;;;;;;5.03;3.60;;;;;;;12.71;36.67;100273.66;4951067;28;20530;-87
2021/03/30 07:44:24;;;;;;;6.22;4.05;;;;;;;12.80;37.90;100270.22;4955237;28;20038;-88
2021/03/30 07:46:50;;;;;;;5.72;3.78;;;;;;;12.90;37.92;100274.84;4955475;28;20031;-88
2021/03/30 07:49:16;;;;;;;6.97;3.38;;;;;;;13.00;37.07;100268.72;4955150;28;20055;-87
2021/03/30 07:51:44;;;;;;;8.40;4.22;;;;;;;13.06;37.49;100274.91;4955341;28;20546;-86
2021/03/30 07:54:13;;;;;;;8.93;4.22;;;;;;;13.06;36.93;100274.91;4956119;28;20037;-90
2021/03/30 07:56:39;;;;;;;5.85;4.35;;;;;;;13.06;38.82;100273.03;4955792;28;20031;-90
2021/03/30 07:59:06;;;;;;;5.68;4.10;;;;;;;13.12;38.14;100276.53;4955386;28;20029;-86
2021/03/30 08:01:34;;;;;;;7.53;4.82;;;;;;;13.17;36.90;100267.69;4954709;28;20041;-88
2021/03/30 08:04:01;;;;;;;4.95;4.45;;;;;;;13.11;36.90;100267.69;4956065;28;20050;-87
2021/03/30 08:06:31;;;;;;;8.57;5.38;;;;;;;13.15;37.48;100267.97;4955007;28;20458;-86
2021/03/30 08:09:07;;;;;;;7.32;5.18;;;;;;;13.18;36.73;100259.38;4954766;28;20475;-87
2021/03/30 08:11:51;;;;;;;9.32;5.47;;;;;;;13.26;36.67;100245.44;4943273;28;20026;-88
2021/03/30 08:14:23;;;;;;;5.55;5.00;;;;;;;13.29;38.18;100258.34;4955319;28;20022;-87
2021/03/30 08:16:52;;;;;;;6.63;5.32;;;;;;;13.39;37.04;100256.78;4941441;29;20396;-89
2021/03/30 08:19:18;;;;;;;8.05;4.75;;;;;;;13.34;36.20;100244.13;4945496;28;20027;-85
2021/03/30 08:22:00;;;;;;;9.23;5.78;;;;;;;13.32;36.47;100251.63;4938852;28;20019;-86
2021/03/30 08:24:46;;;;;;;6.45;5.15;;;;;;;13.44;36.36;100254.13;4952356;28;20030;-87
2021/03/30 08:27:35;;;;;;;10.27;6.00;;;;;;;13.50;36.80;100250.38;4931547;28;20062;-90
2021/03/30 08:30:03;;;;;;;9.02;5.15;;;;;;;13.49;36.60;100242.56;4950432;28;20365;-88
2021/03/30 08:32:32;;;;;;;11.20;6.72;;;;;;;13.49;35.38;100235.31;4952501;28;20126;-87
2021/03/30 08:34:58;;;;;;;10.82;7.35;;;;;;;13.48;36.37;100247.13;4952834;28;20037;-85
2021/03/30 08:37:23;;;;;;;15.95;8.43;;;;;;;13.57;36.89;100245.56;4951771;28;20117;-83
2021/03/30 08:39:49;;;;;;;9.27;6.60;;;;;;;13.62;36.85;100247.41;4952908;28;20026;-84
2021/03/30 08:42:21;;;;;;;10.98;6.18;;;;;;;13.66;35.22;100247.69;4935390;28;20027;-93
2021/03/30 08:45:03;;;;;;;11.60;6.43;;;;;;;13.67;37.23;100243.94;4951946;28;20030;-87
2021/03/30 08:47:40;;;;;;;10.02;6.70;;;;;;;13.71;35.10;100232.38;4952392;28;20031;-85
2021/03/30 08:50:12;;;;;;;16.85;7.10;;;;;;;13.65;35.54;100246.09;4952617;28;20049;-83
2021/03/30 08:52:37;;;;;;;9.75;6.80;;;;;;;13.72;35.77;100241.25;4952419;28;20039;-85
2021/03/30 08:55:05;;;;;;;8.10;5.63;;;;;;;13.70;36.89;100238.84;4944608;28;20062;-89
2021/03/30 08:57:36;;;;;;;8.37;6.10;;;;;;;13.65;35.54;100254.16;4948481;28;20373;-87
2021/03/30 09:00:05;;;;;;;10.32;6.32;;;;;;;13.59;35.91;100261.41;4937209;28;20106;-87
2021/03/30 09:02:32;;;;;;;11.90;7.00;;;;;;;13.42;35.11;100249.00;4952813;28;20093;-85
2021/03/30 09:04:58;;;;;;;10.77;8.10;;;;;;;13.38;35.90;100223.75;4952539;28;20395;-87
2021/03/30 09:07:24;;;;;;;12.80;6.93;;;;;;;13.40;36.26;100228.84;4951308;28;20033;-84
2021/03/30 09:10:02;;;;;;;10.93;7.35;;;;;;;13.38;35.58;100226.41;4934561;28;20027;-85
2021/03/30 09:12:29;;;;;;;9.82;6.97;;;;;;;13.44;35.89;100246.06;4936786;28;20139;-85
2021/03/30 09:15:08;;;;;;;10.68;5.68;;;;;;;13.51;37.27;100226.97;4934624;29;20544;-86
2021/03/30 09:17:34;;;;;;;9.40;6.30;;;;;;;13.59;36.88;100223.78;4934566;28;20023;-85
2021/03/30 09:20:02;;;;;;;12.98;6.32;;;;;;;13.68;37.49;100221.34;4952541;28;20035;-84
2021/03/30 09:27:36;;;;;;;11.45;6.88;;;;;;;13.99;34.70;100237.50;4951791;28;20118;-84
2021/03/30 09:30:09;;;;;;;10.02;6.32;;;;;;;14.03;34.46;100223.25;4940679;28;20407;-84
2021/03/30 09:32:37;;;;;;;14.00;7.70;;;;;;;13.99;34.01;100207.91;4951525;28;20035;-83
2021/03/30 09:35:04;;;;;;;;;;;;;;;13.97;35.37;100224.31;4952647;28;20688;-84
2021/03/30 09:37:45;;;;;;;12.30;7.03;;;;;;;13.97;35.28;100226.22;4952392;28;19910;-90
2021/03/30 09:40:13;;;;;;;11.35;6.53;;;;;;;14.02;33.79;100227.00;4943545;28;20019;-84
2021/03/30 09:42:43;;;;;;;8.95;6.95;;;;;;;14.08;34.95;100206.31;4937876;28;20031;-85
2021/03/30 09:45:10;;;;;;;14.30;7.30;;;;;;;14.12;34.90;100218.13;4953920;28;20136;-82
2021/03/30 09:47:37;;;;;;;11.47;7.33;;;;;;;14.15;33.60;100212.22;4955597;28;20495;-83
2021/03/30 09:50:03;;;;;;;10.23;7.60;;;;;;;14.16;34.23;100196.88;4942727;28;20399;-83
2021/03/30 09:52:31;;;;;;;8.77;6.50;;;;;;;14.28;33.82;100220.81;4955493;28;20022;-84
2021/03/30 09:54:57;;;;;;;7.80;5.57;;;;;;;14.11;32.75;100164.59;4948370;28;20038;-85
2021/03/30 09:57:31;;;;;;;10.93;6.68;;;;;;;14.12;34.02;100203.88;4937544;28;20699;-84
2021/03/30 09:59:58;;;;;;;13.00;7.80;;;;;;;14.04;33.92;100195.28;4937681;29;20038;-83
2021/03/30 10:02:26;;;;;;;14.68;7.70;;;;;;;14.04;33.52;100203.34;4937563;28;20098;-83
2021/03/30 10:04:57;;;;;;;11.60;7.25;;;;;;;14.08;33.92;100198.22;4937737;28;20055;-85
2021/03/30 10:07:24;;;;;;;9.55;6.18;;;;;;;14.11;34.53;100195.00;4942783;28;20043;-84
2021/03/30 10:09:55;;;;;;;9.80;6.57;;;;;;;14.17;32.71;100217.31;4950279;28;20118;-86
2021/03/30 10:12:30;;;;;;;12.52;7.85;;;;;;;14.09;32.71;100194.47;4948121;28;20050;-88
2021/03/30 10:14:56;;;;;;;9.88;6.30;;;;;;;14.13;32.93;100184.75;4955562;28;20023;-86
2021/03/30 10:17:24;;;;;;;8.90;6.38;;;;;;;14.11;33.21;100189.63;4955224;28;20054;-86
2021/03/30 10:19:51;;;;;;;10.27;6.35;;;;;;;14.18;32.06;100202.78;4943064;28;20463;-86
2021/03/30 10:22:28;;;;;;;10.07;6.10;;;;;;;14.10;31.93;100209.53;4950168;28;20191;-89
2021/03/30 10:25:10;;;;;;;11.30;7.07;;;;;;;13.98;31.66;100190.19;4947561;28;20031;-90
2021/03/30 10:27:37;;;;;;;9.57;7.30;;;;;;;13.94;31.39;100211.44;4950141;28;20030;-89
2021/03/30 10:30:05;;;;;;;10.32;6.72;;;;;;;13.96;32.67;100171.59;4937824;29;20027;-87
2021/03/30 10:32:43;;;;;;;15.02;6.47;;;;;;;13.95;31.87;100174.56;4937648;29;20121;-90
2021/03/30 10:35:09;;;;;;;11.20;6.40;;;;;;;13.93;32.13;100164.88;4938100;29;20182;-89
2021/03/30 10:37:35;;;;;;;10.32;6.70;;;;;;;14.09;32.72;100154.91;4937318;29;20020;-89
2021/03/30 10:40:04;;;;;;;8.77;6.47;;;;;;;14.16;32.69;100159.19;4937782;29;20101;-89
2021/03/30 10:42:31;;;;;;;8.85;6.78;;;;;;;14.17;32.83;100163.50;4937909;29;20034;-90
2021/03/30 10:44:58;;;;;;;10.98;6.43;;;;;;;14.13;33.46;100151.69;4939032;29;20038;-90
2021/03/30 10:47:29;;;;;;;8.52;6.45;;;;;;;14.19;33.42;100174.81;4936533;29;20031;-88
2021/03/30 10:49:55;;;;;;;10.73;6.63;;;;;;;14.12;32.33;100171.59;4937861;29;20050;-90
2021/03/30 10:52:25;;;;;;;9.57;6.28;;;;;;;14.14;32.59;100153.31;4937698;29;20109;-88
2021/03/30 10:54:53;;;;;;;9.48;6.40;;;;;;;14.11;31.39;100161.91;4937347;29;20090;-88
2021/03/30 10:57:20;;;;;;;7.43;5.80;;;;;;;14.16;33.43;100143.88;4937389;29;20027;-87
2021/03/30 10:59:46;;;;;;;6.38;5.03;;;;;;;14.23;32.42;100135.50;4937574;29;20279;-86
2021/03/30 11:02:13;;;;;;;8.57;6.00;;;;;;;14.22;32.08;100148.16;4954078;28;20505;-87
2021/03/30 11:04:40;;;;;;;14.32;6.72;;;;;;;14.20;32.26;100158.38;4957576;28;20082;-95
2021/03/30 11:07:06;;;;;;;9.18;5.68;;;;;;;14.12;31.13;100132.03;4956922;28;20093;-91
2021/03/30 11:09:32;;;;;;;8.32;6.05;;;;;;;14.07;31.84;100148.19;4956578;28;20030;-84
2021/03/30 11:11:58;;;;;;;8.45;5.25;;;;;;;14.02;31.89;100146.31;4955505;28;20030;-83
2021/03/30 11:14:24;;;;;;;7.35;5.60;;;;;;;14.03;30.70;100137.19;4955754;28;20494;-80
2021/03/30 11:16:49;;;;;;;6.55;5.60;;;;;;;13.95;30.32;100137.72;4955838;28;20034;-81
2021/03/30 11:19:16;;;;;;;9.10;6.57;;;;;;;13.89;32.15;100160.31;4955417;28;20030;-82
2021/03/30 11:21:42;;;;;;;9.43;6.03;;;;;;;13.86;30.57;100148.22;4955783;28;20117;-84
2021/03/30 11:24:11;;;;;;;6.63;5.18;;;;;;;13.89;31.75;100126.19;4956008;28;20118;-82
2021/03/30 11:26:38;;;;;;;8.57;6.07;;;;;;;13.84;31.67;100128.06;4955927;28;20125;-84
2021/03/30 11:29:04;;;;;;;9.55;7.05;;;;;;;13.88;32.32;100127.25;4956086;28;20034;-83
2021/03/30 11:32:01;;;;;;;10.73;6.88;;;;;;;13.87;32.70;100119.47;4942085;28;20031;-84
2021/03/30 11:35:01;;;;;;;10.02;6.50;;;;;;;13.90;33.10;100118.91;4953446;28;20412;-81
2021/03/30 11:37:14;;;;;;;9.40;5.30;;;;;;;14.08;32.07;100112.94;4946279;29;20035;-81
2021/03/30 11:39:40;;;;;;;8.10;5.40;;;;;;;14.17;32.72;100115.91;4950000;28;20019;-90
2021/03/30 11:42:06;;;;;;;6.40;4.65;;;;;;;14.25;31.00;100099.19;4943207;29;20103;-82
2021/03/30 11:44:32;;;;;;;6.88;4.97;;;;;;;14.33;31.21;100100.53;4936357;29;20085;-84
2021/03/30 11:47:00;;;;;;;20.45;10.23;;;;;;;14.27;31.11;100108.88;4955760;28;20038;-91
2021/03/30 11:49:31;;;;;;;11.02;6.70;;;;;;;14.24;31.71;100096.78;4954993;28;20488;-88
2021/03/30 11:51:57;;;;;;;6.75;4.75;;;;;;;14.19;30.62;100129.88;4955670;28;20495;-81
2021/03/30 11:54:23;;;;;;;6.40;5.20;;;;;;;14.14;31.21;100102.19;4955370;28;20126;-83
2021/03/30 11:56:49;;;;;;;9.40;6.50;;;;;;;14.03;30.92;100102.22;4954595;28;20027;-83
2021/03/30 11:59:14;;;;;;;8.95;6.65;;;;;;;13.93;31.15;100110.31;4936187;29;20019;-82
2021/03/30 12:01:40;;;;;;;9.88;6.35;;;;;;;13.87;31.54;100092.59;4935938;29;20026;-86
2021/03/30 12:04:06;;;;;;;11.77;7.75;;;;;;;13.78;32.27;100084.25;4935959;29;20031;-87
2021/03/30 12:06:32;;;;;;;10.23;7.43;;;;;;;13.70;32.14;100088.28;4945764;28;20026;-85
2021/03/30 12:08:57;;;;;;;11.40;6.65;;;;;;;13.70;32.57;100087.50;4954896;28;20483;-82
2021/03/30 12:11:23;;;;;;;11.60;7.35;;;;;;;13.76;33.28;100072.97;4955017;28;20019;-83
2021/03/30 12:13:48;;;;;;;10.52;7.80;;;;;;;13.77;33.39;100070.00;4954931;28;20033;-85